Minerva Anna — SVNP — position and weather

sailwx.info

Track history (hours):
 
Tides and Currents Weather Stations Pressure Air Temp Water Temp Dewpoint Dewpoint Depression Visibility Wind Speed Wind Dir Waves Ship Positions

Minerva Anna

Last reported at 2018-Feb-22 04:45 UTC. Time now 2018-Feb-23 16:07 UTC.
Position N 47°32' W 053°00'.

Length 183 m; draft 10.7 m.

Type: Ship. MMSI: 240729000.

Date/timePositionNaut miles runAvg speedWind from/ knotsBaromVisibWave heightAir tempDewpointWater temp
2018-Feb-22 04:45N 47°32' W 053°00'1 3.6
2018-Feb-22 04:30N 47°32' W 053°02'4 8.0
2018-Feb-22 03:57N 47°36' W 053°05'610.0
2018-Feb-22 03:23N 47°41' W 053°01'18 7.5
2018-Feb-22 01:03N 47°48' W 052°38'310.9
2018-Feb-22 00:46N 47°46' W 052°35'310.7
2018-Feb-22 00:27N 47°43' W 052°31'510.6
2018-Feb-21 23:56N 47°39' W 052°26'510.9
2018-Feb-21 23:30N 47°36' W 052°21'610.6
2018-Feb-21 22:58N 47°31' W 052°16'611.6
2018-Feb-21 22:26N 47°25' W 052°19'511.1
2018-Feb-21 21:58N 47°20' W 052°21'  
2018-Feb-14 10:53N 26°15' W 079°17'512.7
2018-Feb-14 10:30N 26°12' W 079°20'713.5
2018-Feb-14 10:00N 26°07' W 079°26'713.3
2018-Feb-14 09:30N 26°01' W 079°28'714.2
2018-Feb-14 09:00N 25°54' W 079°29'714.2
2018-Feb-14 08:30N 25°46' W 079°29'713.8
2018-Feb-14 08:01N 25°40' W 079°29'714.0
2018-Feb-14 07:30N 25°33' W 079°29'714.2
2018-Feb-14 07:00N 25°25' W 079°30'  
Track history (hours):
 
Tides and Currents Weather Stations Pressure Air Temp Water Temp Dewpoint Dewpoint Depression Visibility Wind Speed Wind Dir Waves Ship Positions

Minerva Anna

Last reported at 2018-Feb-22 04:45 UTC. Time now 2018-Feb-23 16:07 UTC.
Position N 47°32' W 053°00'.

Length 183 m; draft 10.7 m.

Type: Ship. MMSI: 240729000.

Date/timePositionNaut miles runAvg speedWind from/ knotsBaromVisibWave heightAir tempDewpointWater temp
2018-Feb-22 04:45N 47°32' W 053°00'1 3.6
2018-Feb-22 04:30N 47°32' W 053°02'4 8.0
2018-Feb-22 03:57N 47°36' W 053°05'610.0
2018-Feb-22 03:23N 47°41' W 053°01'18 7.5
2018-Feb-22 01:03N 47°48' W 052°38'310.9
2018-Feb-22 00:46N 47°46' W 052°35'310.7
2018-Feb-22 00:27N 47°43' W 052°31'510.6
2018-Feb-21 23:56N 47°39' W 052°26'510.9
2018-Feb-21 23:30N 47°36' W 052°21'610.6
2018-Feb-21 22:58N 47°31' W 052°16'611.6
2018-Feb-21 22:26N 47°25' W 052°19'511.1
2018-Feb-21 21:58N 47°20' W 052°21'  
2018-Feb-14 10:53N 26°15' W 079°17'512.7
2018-Feb-14 10:30N 26°12' W 079°20'713.5
2018-Feb-14 10:00N 26°07' W 079°26'713.3
2018-Feb-14 09:30N 26°01' W 079°28'714.2
2018-Feb-14 09:00N 25°54' W 079°29'714.2
2018-Feb-14 08:30N 25°46' W 079°29'713.8
2018-Feb-14 08:01N 25°40' W 079°29'714.0
2018-Feb-14 07:30N 25°33' W 079°29'714.2
2018-Feb-14 07:00N 25°25' W 079°30'  

Dump ship's entire track history